Time;durP1;ratioP1;P1;durP2;ratioP2;P2;SDS_P1;SDS_P2;PMS_P1;PMS_P2;Temp;Humidity;BMP_temperature;BMP_pressure;BME280_temperature;BME280_humidity;BME280_pressure;Samples;Min_cycle;Max_cycle;Signal;HPM_P1;HPM_P2
2023/04/24 00:01:56;;;;;;;4.60;2.07;;;9.90;99.90;;;;;;5059345;28;20497;-63
2023/04/24 00:04:25;;;;;;;2.87;2.10;;;9.90;99.90;;;;;;5059869;28;20466;-63
2023/04/24 00:06:56;;;;;;;2.70;1.70;;;9.90;99.90;;;;;;5058971;28;20462;-63
2023/04/24 00:09:25;;;;;;;2.23;1.93;;;9.80;99.90;;;;;;5059597;28;20908;-64
2023/04/24 00:11:53;;;;;;;2.73;2.30;;;9.80;99.90;;;;;;5059424;28;20834;-60
2023/04/24 00:14:21;;;;;;;2.33;1.60;;;9.80;99.90;;;;;;5059495;28;20505;-63
2023/04/24 00:16:48;;;;;;;2.33;2.00;;;9.80;99.90;;;;;;5059282;28;20485;-63
2023/04/24 00:19:16;;;;;;;2.40;2.03;;;9.80;99.90;;;;;;5059519;28;21589;-63
2023/04/24 00:21:43;;;;;;;3.10;2.20;;;9.80;99.90;;;;;;5059462;28;20469;-61
2023/04/24 00:24:11;;;;;;;2.37;1.97;;;9.80;99.90;;;;;;5059291;28;20895;-62
2023/04/24 00:26:39;;;;;;;3.87;2.00;;;9.80;99.90;;;;;;5059068;28;20476;-62
2023/04/24 00:29:06;;;;;;;2.90;2.13;;;9.80;99.90;;;;;;5059317;28;20538;-62
2023/04/24 00:31:34;;;;;;;3.67;2.07;;;9.80;99.90;;;;;;5058820;28;20950;-63
2023/04/24 00:34:02;;;;;;;3.70;2.07;;;9.80;99.90;;;;;;5075176;28;20461;-62
2023/04/24 00:36:30;;;;;;;2.80;2.20;;;9.70;99.90;;;;;;5078972;28;20505;-62
2023/04/24 00:38:57;;;;;;;3.50;1.80;;;9.70;99.90;;;;;;5078783;28;20943;-60
2023/04/24 00:41:26;;;;;;;5.20;2.47;;;9.80;99.90;;;;;;5078757;28;20760;-62
2023/04/24 00:43:55;;;;;;;3.50;2.13;;;9.80;99.90;;;;;;5078908;28;20435;-62
2023/04/24 00:46:22;;;;;;;2.63;2.00;;;9.90;99.90;;;;;;5079048;28;20468;-61
2023/04/24 00:48:50;;;;;;;2.63;2.07;;;9.90;99.90;;;;;;5078707;28;20556;-62
2023/04/24 00:51:17;;;;;;;2.60;1.90;;;9.90;99.90;;;;;;5079211;28;20890;-62
2023/04/24 00:53:45;;;;;;;3.23;2.13;;;10.00;99.90;;;;;;5078479;28;20457;-62
2023/04/24 00:56:12;;;;;;;2.40;1.70;;;10.00;99.90;;;;;;5078686;28;20564;-62
2023/04/24 00:58:41;;;;;;;3.20;2.03;;;10.00;99.90;;;;;;5078557;28;20542;-64
2023/04/24 01:01:11;;;;;;;2.30;1.97;;;10.00;99.90;;;;;;5078378;28;20508;-60
2023/04/24 01:03:39;;;;;;;2.67;2.03;;;10.00;99.90;;;;;;5078388;28;20895;-62
2023/04/24 01:06:07;;;;;;;3.13;2.17;;;10.10;99.90;;;;;;5078558;28;20552;-62
2023/04/24 01:08:37;;;;;;;2.90;2.60;;;10.10;99.90;;;;;;5078671;28;20467;-62
2023/04/24 01:11:05;;;;;;;4.13;2.33;;;10.10;99.90;;;;;;5078710;28;20465;-61
2023/04/24 01:13:33;;;;;;;6.90;2.63;;;10.10;99.90;;;;;;5078405;28;20469;-59
2023/04/24 01:16:01;;;;;;;2.53;2.33;;;10.20;99.90;;;;;;5078387;28;20773;-58
2023/04/24 01:18:30;;;;;;;3.10;2.53;;;10.20;99.90;;;;;;5077448;28;20588;-62
2023/04/24 01:20:59;;;;;;;3.70;2.93;;;10.20;99.90;;;;;;5077818;28;20488;-62
2023/04/24 01:23:28;;;;;;;3.20;2.50;;;10.20;99.90;;;;;;5077973;28;20820;-62
2023/04/24 01:25:55;;;;;;;3.13;2.50;;;10.20;99.90;;;;;;5077875;28;20497;-60
2023/04/24 01:28:23;;;;;;;2.90;2.60;;;10.20;99.90;;;;;;5077858;28;20528;-61
2023/04/24 01:30:50;;;;;;;2.90;2.40;;;10.20;99.90;;;;;;5078062;28;20461;-60
2023/04/24 01:33:18;;;;;;;3.40;2.20;;;10.20;99.90;;;;;;5078030;28;20842;-63
2023/04/24 01:35:45;;;;;;;3.60;2.37;;;10.20;99.90;;;;;;5077596;28;20499;-63
2023/04/24 01:38:13;;;;;;;5.40;2.70;;;10.20;99.90;;;;;;5077841;28;21025;-63
2023/04/24 01:40:41;;;;;;;2.40;1.93;;;10.20;99.90;;;;;;5078076;28;20466;-57
2023/04/24 01:43:09;;;;;;;3.77;2.70;;;10.10;99.90;;;;;;5078120;28;20461;-59
2023/04/24 01:45:36;;;;;;;3.67;2.40;;;10.10;99.90;;;;;;5077614;28;20805;-62
2023/04/24 01:48:04;;;;;;;3.40;3.10;;;10.10;99.90;;;;;;5078067;28;20492;-60
2023/04/24 01:50:31;;;;;;;3.23;2.60;;;10.10;99.90;;;;;;5077592;28;20496;-61
2023/04/24 01:52:58;;;;;;;3.20;2.90;;;10.10;99.90;;;;;;5077632;28;20559;-60
2023/04/24 01:55:26;;;;;;;5.03;3.53;;;10.00;99.90;;;;;;5077168;28;20511;-61
2023/04/24 01:57:57;;;;;;;3.67;3.20;;;10.00;99.90;;;;;;5077383;28;20489;-61
2023/04/24 02:00:25;;;;;;;3.30;2.97;;;9.90;99.90;;;;;;5077819;28;20484;-61
2023/04/24 02:02:52;;;;;;;4.20;3.50;;;9.90;99.90;;;;;;5077572;28;20465;-59
2023/04/24 02:05:19;;;;;;;5.93;3.40;;;9.90;99.90;;;;;;5077089;28;20458;-62
2023/04/24 02:07:47;;;;;;;5.07;3.90;;;9.90;99.90;;;;;;5077256;28;20986;-61
2023/04/24 02:10:14;;;;;;;7.10;3.80;;;9.80;99.90;;;;;;5077202;28;20461;-61
2023/04/24 02:12:41;;;;;;;4.80;3.70;;;9.80;99.90;;;;;;5077554;28;20568;-61
2023/04/24 02:15:11;;;;;;;4.10;3.60;;;9.70;99.90;;;;;;5077401;28;20817;-60
2023/04/24 02:17:39;;;;;;;4.50;3.77;;;9.70;99.90;;;;;;5076848;28;20497;-59
2023/04/24 02:20:07;;;;;;;4.13;3.73;;;9.60;99.90;;;;;;5077034;28;20811;-62
2023/04/24 02:22:34;;;;;;;4.30;3.90;;;9.50;99.90;;;;;;5077308;28;20461;-61
2023/04/24 02:25:01;;;;;;;4.80;4.30;;;9.40;99.90;;;;;;5077571;28;20468;-62
2023/04/24 02:27:29;;;;;;;5.37;4.57;;;9.30;99.90;;;;;;5076801;28;20797;-61
2023/04/24 02:29:56;;;;;;;5.80;5.20;;;9.20;99.90;;;;;;5076821;28;20560;-61
2023/04/24 02:32:25;;;;;;;7.77;6.30;;;9.20;99.90;;;;;;5077563;28;20458;-62
2023/04/24 02:34:52;;;;;;;7.63;6.70;;;9.20;99.90;;;;;;5077190;28;20501;-62
2023/04/24 02:37:19;;;;;;;8.63;7.73;;;9.10;99.90;;;;;;5077120;28;20496;-61
2023/04/24 02:39:46;;;;;;;8.00;7.20;;;9.10;99.90;;;;;;5076760;28;20465;-61
2023/04/24 02:42:14;;;;;;;9.47;8.20;;;9.00;99.90;;;;;;5076868;28;20560;-59
2023/04/24 02:44:41;;;;;;;7.97;7.10;;;9.00;99.90;;;;;;5074203;28;20975;-60
2023/04/24 02:47:08;;;;;;;11.07;9.87;;;9.00;99.90;;;;;;5056772;28;20466;-59
2023/04/24 02:49:37;;;;;;;11.43;9.50;;;9.00;99.90;;;;;;5056613;28;20494;-62
2023/04/24 02:52:04;;;;;;;10.93;9.00;;;8.90;99.90;;;;;;5056791;28;20772;-60
2023/04/24 02:54:31;;;;;;;10.90;9.80;;;8.90;99.90;;;;;;5056847;28;20515;-59
2023/04/24 02:56:58;;;;;;;12.00;10.13;;;8.80;99.90;;;;;;5056359;28;20460;-60
2023/04/24 02:59:27;;;;;;;11.17;9.97;;;8.80;99.90;;;;;;5056853;28;20497;-60
2023/04/24 03:01:54;;;;;;;10.53;9.43;;;8.90;99.90;;;;;;5056934;28;20756;-59
2023/04/24 03:04:22;;;;;;;10.00;9.00;;;8.80;99.90;;;;;;5056759;28;20888;-54
2023/04/24 03:06:52;;;;;;;12.13;9.87;;;8.90;99.90;;;;;;5056253;28;20461;-58
2023/04/24 03:09:19;;;;;;;12.10;9.77;;;8.90;99.90;;;;;;5057124;28;20465;-59
2023/04/24 03:11:48;;;;;;;11.07;9.93;;;8.80;99.90;;;;;;5056716;28;20466;-54
2023/04/24 03:14:15;;;;;;;11.60;9.93;;;8.80;99.90;;;;;;5056747;28;20509;-60
2023/04/24 03:16:42;;;;;;;13.00;9.73;;;8.90;99.90;;;;;;5056956;28;20860;-58
2023/04/24 03:19:10;;;;;;;12.23;10.63;;;8.80;99.90;;;;;;5056615;28;20962;-57
2023/04/24 03:21:40;;;;;;;12.60;9.97;;;8.80;99.90;;;;;;5056243;28;20536;-59
2023/04/24 03:24:09;;;;;;;15.03;11.60;;;8.90;99.90;;;;;;5056341;28;20466;-58
2023/04/24 03:26:36;;;;;;;11.00;9.83;;;8.80;99.90;;;;;;5066605;28;20473;-59
2023/04/24 03:29:03;;;;;;;12.47;10.63;;;8.80;99.90;;;;;;5076810;28;20548;-57
2023/04/24 03:31:31;;;;;;;15.83;11.57;;;8.70;99.90;;;;;;5076253;28;20821;-59
2023/04/24 03:33:58;;;;;;;12.33;10.57;;;8.70;99.90;;;;;;5076325;28;20503;-59
2023/04/24 03:36:25;;;;;;;10.50;8.83;;;8.60;99.90;;;;;;5074613;28;20898;-58
2023/04/24 03:38:53;;;;;;;11.57;10.07;;;8.60;99.90;;;;;;5076279;28;20800;-61
2023/04/24 03:41:22;;;;;;;11.60;9.63;;;8.60;99.90;;;;;;5076531;28;20564;-59
2023/04/24 03:43:49;;;;;;;11.53;9.43;;;8.60;99.90;;;;;;5078895;28;20465;-58
2023/04/24 03:46:16;;;;;;;10.10;8.97;;;8.60;99.90;;;;;;5079449;28;20544;-58
2023/04/24 03:48:44;;;;;;;14.13;9.77;;;8.50;99.90;;;;;;5080487;28;20509;-60
2023/04/24 03:51:11;;;;;;;12.37;9.97;;;8.50;99.90;;;;;;5079971;28;20461;-57
2023/04/24 03:53:38;;;;;;;10.67;9.07;;;8.60;99.90;;;;;;5079763;28;20462;-59
2023/04/24 03:56:06;;;;;;;10.93;9.37;;;8.50;99.90;;;;;;5079588;28;20461;-59
2023/04/24 03:58:34;;;;;;;11.23;10.03;;;8.50;99.90;;;;;;5079716;28;20492;-61
2023/04/24 04:01:02;;;;;;;11.33;10.23;;;8.50;99.90;;;;;;5079737;28;20555;-60
2023/04/24 04:03:30;;;;;;;14.60;11.67;;;8.50;99.90;;;;;;5079555;28;20824;-59
2023/04/24 04:05:57;;;;;;;14.00;11.03;;;8.60;99.90;;;;;;5079397;28;20497;-62
2023/04/24 04:08:24;;;;;;;12.57;10.60;;;8.60;99.90;;;;;;5079535;28;20492;-60
2023/04/24 04:10:51;;;;;;;14.17;10.07;;;8.60;99.90;;;;;;5079942;28;20564;-60
2023/04/24 04:13:18;;;;;;;11.90;9.83;;;8.60;99.90;;;;;;5078975;28;20556;-61
2023/04/24 04:15:47;;;;;;;12.20;10.90;;;8.50;99.90;;;;;;5079284;28;20458;-60
2023/04/24 04:18:14;;;;;;;14.60;10.53;;;8.50;99.90;;;;;;5079125;28;20619;-59
2023/04/24 04:20:42;;;;;;;12.50;9.87;;;8.60;99.90;;;;;;5074030;28;20465;-59
2023/04/24 04:23:09;;;;;;;11.37;10.00;;;8.60;99.90;;;;;;5077567;28;20510;-58
2023/04/24 04:25:36;;;;;;;10.73;9.63;;;8.60;99.90;;;;;;5078664;28;20781;-60
2023/04/24 04:28:03;;;;;;;14.30;10.83;;;8.60;99.90;;;;;;5078242;28;20484;-59
2023/04/24 04:30:32;;;;;;;13.50;10.70;;;8.60;99.90;;;;;;5077698;28;20560;-62
2023/04/24 04:33:01;;;;;;;16.23;11.67;;;8.70;99.90;;;;;;5077511;28;20491;-60
2023/04/24 04:35:28;;;;;;;14.57;11.50;;;8.60;99.90;;;;;;5077763;28;20544;-57
2023/04/24 04:37:55;;;;;;;15.70;11.47;;;8.70;99.90;;;;;;5077090;28;20457;-60
2023/04/24 04:40:23;;;;;;;13.63;11.40;;;8.70;99.90;;;;;;5077340;28;20756;-59
2023/04/24 04:42:52;;;;;;;17.47;12.50;;;8.70;99.90;;;;;;5077434;28;20453;-58
2023/04/24 04:45:20;;;;;;;14.30;11.60;;;8.70;99.90;;;;;;5078585;28;20456;-59
2023/04/24 04:47:48;;;;;;;12.83;11.37;;;8.70;99.90;;;;;;5078997;28;20453;-61
2023/04/24 04:50:19;;;;;;;14.30;11.47;;;8.70;99.90;;;;;;5079000;28;20471;-58
2023/04/24 04:52:46;;;;;;;12.07;9.40;;;8.70;99.90;;;;;;5077636;28;20536;-61
2023/04/24 04:55:14;;;;;;;13.23;11.37;;;8.60;99.90;;;;;;5074784;28;20449;-59
2023/04/24 04:57:43;;;;;;;11.87;9.87;;;8.70;99.90;;;;;;5074810;28;20449;-61
2023/04/24 05:00:12;;;;;;;12.90;10.70;;;8.60;99.90;;;;;;5072942;28;20525;-62
2023/04/24 05:02:40;;;;;;;12.20;10.17;;;8.60;99.90;;;;;;5075864;28;20503;-61
2023/04/24 05:05:08;;;;;;;14.23;11.60;;;8.60;1.00;;;;;;5075849;28;20545;-60
2023/04/24 05:07:37;;;;;;;14.43;10.77;;;8.50;1.00;;;;;;5075461;28;20458;-60
2023/04/24 05:10:05;;;;;;;10.97;9.17;;;8.50;1.00;;;;;;5075440;28;20475;-60
2023/04/24 05:12:32;;;;;;;12.83;10.00;;;8.50;1.00;;;;;;5075709;28;20540;-61
2023/04/24 05:14:59;;;;;;;11.20;10.00;;;8.40;1.00;;;;;;5075160;28;20474;-57
2023/04/24 05:17:26;;;;;;;12.80;11.60;;;8.40;1.00;;;;;;5076148;28;20559;-59
2023/04/24 05:19:54;;;;;;;15.83;10.40;;;8.40;1.00;;;;;;5077560;28;20496;-57
2023/04/24 05:22:21;;;;;;;13.33;10.67;;;8.30;1.00;;;;;;5076683;28;20556;-61
2023/04/24 05:24:50;;;;;;;11.20;10.00;;;8.30;1.00;;;;;;5075515;28;20461;-60
2023/04/24 05:27:17;;;;;;;12.57;10.30;;;8.30;1.00;;;;;;5076204;28;20527;-62
2023/04/24 05:29:44;;;;;;;11.93;10.73;;;8.30;1.00;;;;;;5077545;28;20457;-62
2023/04/24 05:32:12;;;;;;;12.20;10.27;;;8.30;1.00;;;;;;5077408;28;20495;-62
2023/04/24 05:34:39;;;;;;;15.53;10.80;;;8.30;1.00;;;;;;5076476;28;20466;-63
2023/04/24 05:37:08;;;;;;;13.73;11.00;;;8.10;1.00;;;;;;5076444;28;20457;-63
2023/04/24 05:39:36;;;;;;;10.37;9.27;;;8.10;1.00;;;;;;5074830;28;20485;-62
2023/04/24 05:42:05;;;;;;;14.07;11.00;;;8.00;1.00;;;;;;5073846;28;20456;-62
2023/04/24 05:44:32;;;;;;;13.47;10.47;;;8.00;1.00;;;;;;5074390;28;20461;-60
2023/04/24 05:47:00;;;;;;;13.43;10.30;;;8.10;1.00;;;;;;5074693;28;20556;-62
2023/04/24 05:49:27;;;;;;;14.03;12.03;;;8.10;1.00;;;;;;5075580;28;20464;-60
2023/04/24 05:51:54;;;;;;;13.87;11.40;;;8.10;1.00;;;;;;5075680;28;20560;-61
2023/04/24 05:54:22;;;;;;;13.70;9.60;;;8.10;1.00;;;;;;5076232;28;20751;-61
2023/04/24 05:56:50;;;;;;;11.57;10.10;;;8.10;1.00;;;;;;5075689;28;20827;-53
2023/04/24 05:59:19;;;;;;;12.40;10.13;;;8.20;1.00;;;;;;5078529;28;20492;-60
2023/04/24 06:01:46;;;;;;;11.67;10.00;;;8.20;1.00;;;;;;5091120;28;20500;-53
2023/04/24 06:04:14;;;;;;;11.23;9.53;;;8.30;1.00;;;;;;5096336;28;20805;-62
2023/04/24 06:06:41;;;;;;;12.10;9.50;;;8.20;1.00;;;;;;5077864;28;20454;-62
2023/04/24 06:09:08;;;;;;;12.17;9.87;;;8.20;1.00;;;;;;5074322;28;20453;-62
2023/04/24 06:11:36;;;;;;;11.20;8.73;;;8.20;1.00;;;;;;5075340;28;20550;-60
2023/04/24 06:14:03;;;;;;;12.90;9.10;;;8.10;1.00;;;;;;5075516;28;20568;-63
2023/04/24 06:16:32;;;;;;;10.90;9.80;;;8.10;1.00;;;;;;5075215;28;20945;-63
2023/04/24 06:19:00;;;;;;;10.90;8.90;;;8.10;1.00;;;;;;5075662;28;20829;-62
2023/04/24 06:21:27;;;;;;;9.73;8.73;;;8.00;1.00;;;;;;5075670;28;20465;-62
2023/04/24 06:23:55;;;;;;;10.70;9.20;;;8.00;1.00;;;;;;5077111;28;20463;-60
2023/04/24 06:26:24;;;;;;;11.03;8.50;;;8.00;1.00;;;;;;5076692;28;20844;-62
2023/04/24 06:28:53;;;;;;;10.40;9.30;;;8.00;14.20;;;;;;5076590;28;20925;-62
2023/04/24 06:31:21;;;;;;;9.83;8.70;;;7.90;48.70;;;;;;5075585;28;20453;-60
2023/04/24 06:33:50;;;;;;;11.90;9.70;;;7.70;53.90;;;;;;5076171;28;20461;-62
2023/04/24 06:36:17;;;;;;;13.43;11.13;;;7.80;98.80;;;;;;5075672;28;20567;-62
2023/04/24 06:38:45;;;;;;;11.77;10.60;;;7.80;99.90;;;;;;5076257;28;20543;-63
2023/04/24 06:41:13;;;;;;;12.07;10.30;;;7.90;99.90;;;;;;5076405;28;20468;-61
2023/04/24 06:43:41;;;;;;;12.57;10.00;;;7.80;99.90;;;;;;5076142;28;20827;-61
2023/04/24 06:46:08;;;;;;;13.53;10.60;;;7.70;99.90;;;;;;5077604;28;20535;-61
2023/04/24 06:48:35;;;;;;;12.67;10.30;;;7.70;99.90;;;;;;5077503;28;20465;-63
2023/04/24 06:51:04;;;;;;;12.63;10.40;;;7.70;1.00;;;;;;5077517;28;20593;-63
2023/04/24 06:53:31;;;;;;;10.90;9.80;;;7.70;1.00;;;;;;5077378;28;20465;-64
2023/04/24 06:55:59;;;;;;;13.63;11.03;;;7.70;99.90;;;;;;5077098;28;20500;-64
2023/04/24 06:58:26;;;;;;;9.93;8.60;;;7.90;99.90;;;;;;5077646;28;20464;-62
2023/04/24 07:00:53;;;;;;;9.97;8.53;;;7.90;99.90;;;;;;5078322;28;20519;-63
2023/04/24 07:03:21;;;;;;;8.63;7.70;;;8.00;4.30;;;;;;5075667;28;20495;-62
2023/04/24 07:05:48;;;;;;;9.87;6.90;;;8.00;99.90;;;;;;5075949;28;20898;-64
2023/04/24 07:08:18;;;;;;;8.33;7.43;;;7.90;99.90;;;;;;5075950;28;20563;-63
2023/04/24 07:10:45;;;;;;;7.33;6.23;;;7.90;99.90;;;;;;5076327;28;20830;-66
2023/04/24 07:13:13;;;;;;;9.17;7.33;;;7.90;99.90;;;;;;5074694;28;20467;-66
2023/04/24 07:15:41;;;;;;;9.40;6.13;;;7.90;1.00;;;;;;5075033;28;20948;-65
2023/04/24 07:18:08;;;;;;;7.40;6.00;;;7.80;1.00;;;;;;5076205;28;20462;-65
2023/04/24 07:20:35;;;;;;;8.60;7.07;;;7.90;1.00;;;;;;5078796;28;20588;-64
2023/04/24 07:23:03;;;;;;;7.30;6.60;;;7.90;31.90;;;;;;5077150;28;20762;-65
2023/04/24 07:25:31;;;;;;;7.90;6.30;;;8.00;99.90;;;;;;5077684;28;20487;-65
2023/04/24 07:27:59;;;;;;;8.07;5.47;;;8.00;1.00;;;;;;5075797;28;20484;-63
2023/04/24 07:30:28;;;;;;;6.90;5.93;;;8.00;99.90;;;;;;5068336;28;20461;-65
2023/04/24 07:32:55;;;;;;;8.07;5.80;;;8.00;99.90;;;;;;5077817;28;20461;-66
2023/04/24 07:35:25;;;;;;;6.60;5.37;;;8.10;1.00;;;;;;5077785;28;20457;-67
2023/04/24 07:37:52;;;;;;;6.17;4.67;;;8.00;99.90;;;;;;5072047;28;20465;-66
2023/04/24 07:40:19;;;;;;;5.10;4.67;;;8.10;99.90;;;;;;5076403;28;20505;-66
2023/04/24 07:42:48;;;;;;;4.00;3.50;;;8.10;1.00;;;;;;5079143;28;20486;-66
2023/04/24 07:45:16;;;;;;;4.00;3.43;;;8.10;99.90;;;;;;5067520;28;20766;-67
2023/04/24 07:47:45;;;;;;;3.40;3.10;;;8.10;1.00;;;;;;5058457;28;20473;-67
2023/04/24 07:50:13;;;;;;;4.33;3.03;;;8.20;1.00;;;;;;5058440;28;20720;-66
2023/04/24 07:52:40;;;;;;;4.90;3.80;;;8.30;1.00;;;;;;5057420;28;20465;-66
2023/04/24 07:55:08;;;;;;;3.43;3.03;;;8.30;1.00;;;;;;5057031;28;20501;-66
2023/04/24 07:57:35;;;;;;;3.67;3.20;;;8.20;1.00;;;;;;5056664;28;20458;-66
2023/04/24 08:00:06;;;;;;;2.73;2.30;;;8.30;25.60;;;;;;5056525;28;20493;-66
2023/04/24 08:02:34;;;;;;;4.00;2.40;;;8.20;1.00;;;;;;5055516;28;20473;-65
2023/04/24 08:05:01;;;;;;;3.80;2.70;;;8.20;1.00;;;;;;5056108;28;20462;-64
2023/04/24 08:07:28;;;;;;;3.50;2.57;;;8.30;1.00;;;;;;5056011;28;20489;-65
2023/04/24 08:09:55;;;;;;;3.33;2.67;;;8.20;1.00;;;;;;5057094;28;20557;-65
2023/04/24 08:12:22;;;;;;;3.30;2.23;;;8.10;1.00;;;;;;5058123;28;20582;-65
2023/04/24 08:14:50;;;;;;;2.73;1.60;;;7.80;1.00;;;;;;5057895;28;20433;-66
2023/04/24 08:17:19;;;;;;;2.60;1.70;;;7.60;1.00;;;;;;5077851;28;20461;-64
2023/04/24 08:19:48;;;;;;;2.60;1.60;;;7.40;1.00;;;;;;5078310;28;20583;-66
2023/04/24 08:22:15;;;;;;;2.10;1.50;;;7.40;1.00;;;;;;5078401;28;20772;-64
2023/04/24 08:24:43;;;;;;;1.87;1.30;;;7.40;1.00;;;;;;5079293;28;20828;-66
2023/04/24 08:27:10;;;;;;;5.33;1.60;;;7.30;1.00;;;;;;5079212;28;20528;-66
2023/04/24 08:29:38;;;;;;;1.90;1.30;;;7.30;1.00;;;;;;5078387;28;20489;-66
2023/04/24 08:32:05;;;;;;;2.00;1.40;;;7.30;1.00;;;;;;5079031;28;20467;-65
2023/04/24 08:34:34;;;;;;;2.40;1.57;;;7.30;1.00;;;;;;5079419;28;20559;-66
2023/04/24 08:37:01;;;;;;;4.80;1.37;;;7.20;1.00;;;;;;5079494;28;20465;-66
2023/04/24 08:39:28;;;;;;;2.87;1.50;;;7.10;1.00;;;;;;5079189;28;20493;-66
2023/04/24 08:41:56;;;;;;;2.10;1.50;;;7.00;1.00;;;;;;5078717;28;20568;-67
2023/04/24 08:44:24;;;;;;;2.43;1.73;;;7.00;1.00;;;;;;5079067;28;20497;-67
2023/04/24 08:46:51;;;;;;;3.40;2.70;;;7.00;89.00;;;;;;5079144;28;20476;-68
2023/04/24 08:49:19;;;;;;;2.30;1.80;;;7.00;99.90;;;;;;5079493;28;20820;-68
2023/04/24 08:51:49;;;;;;;2.57;1.70;;;7.10;99.90;;;;;;5078791;28;20532;-67
2023/04/24 08:54:16;;;;;;;2.40;1.80;;;7.10;99.90;;;;;;5079018;28;20461;-65
2023/04/24 08:56:45;;;;;;;2.90;1.70;;;7.20;1.00;;;;;;5079279;28;20461;-67
2023/04/24 08:59:13;;;;;;;2.30;1.93;;;7.20;99.90;;;;;;5079067;28;20902;-66
2023/04/24 09:01:42;;;;;;;2.50;1.60;;;7.20;99.90;;;;;;5077529;28;20496;-66
2023/04/24 09:04:11;;;;;;;2.30;1.60;;;7.20;99.90;;;;;;5077522;28;20471;-67
2023/04/24 09:06:39;;;;;;;1.87;1.50;;;7.30;99.90;;;;;;5077203;28;20485;-68
2023/04/24 09:09:09;;;;;;;2.00;1.43;;;7.30;90.30;;;;;;5076783;28;20828;-68
2023/04/24 09:11:38;;;;;;;2.20;1.67;;;7.30;93.90;;;;;;5076134;28;20511;-66
2023/04/24 09:14:06;;;;;;;1.90;1.30;;;7.30;79.40;;;;;;5076873;28;20930;-68
2023/04/24 09:16:33;;;;;;;2.50;1.80;;;7.30;99.90;;;;;;5078197;28;20907;-68
2023/04/24 09:19:01;;;;;;;2.13;1.50;;;7.50;99.90;;;;;;5077553;28;20571;-69
2023/04/24 09:21:33;;;;;;;3.13;2.00;;;7.70;99.90;;;;;;5077089;28;20504;-68
2023/04/24 09:24:02;;;;;;;2.20;1.70;;;7.80;99.90;;;;;;5078882;28;20567;-68
2023/04/24 09:26:33;;;;;;;2.33;1.73;;;7.90;99.90;;;;;;5078891;28;20508;-67
2023/04/24 09:29:01;;;;;;;2.37;1.87;;;7.90;99.90;;;;;;5079341;28;20457;-68
2023/04/24 09:31:30;;;;;;;2.53;1.73;;;7.90;99.90;;;;;;5079104;28;20457;-68
2023/04/24 09:34:00;;;;;;;2.70;2.20;;;7.90;99.90;;;;;;5075151;28;20540;-69
2023/04/24 09:36:33;;;;;;;3.37;2.77;;;7.90;99.90;;;;;;5076867;28;20492;-68
2023/04/24 09:39:01;;;;;;;5.57;2.63;;;7.80;1.00;;;;;;5077454;28;20457;-70
2023/04/24 09:41:29;;;;;;;3.67;3.20;;;7.70;99.90;;;;;;5072654;28;20521;-68
2023/04/24 09:44:02;;;;;;;4.27;3.63;;;7.70;99.90;;;;;;5075297;28;20945;-67
2023/04/24 09:46:33;;;;;;;4.67;3.50;;;7.60;99.90;;;;;;5071993;28;20474;-68
2023/04/24 09:49:10;;;;;;;4.50;3.70;;;7.50;99.90;;;;;;5075735;28;20465;-68
2023/04/24 09:51:38;;;;;;;4.30;3.63;;;7.60;91.90;;;;;;5075652;28;20462;-69
2023/04/24 09:54:14;;;;;;;5.50;4.03;;;7.50;99.90;;;;;;5074993;28;20468;-66
2023/04/24 09:56:45;;;;;;;4.50;4.00;;;7.60;1.00;;;;;;5074020;28;20548;-68
2023/04/24 09:59:14;;;;;;;5.40;4.50;;;7.60;99.90;;;;;;5074802;28;20906;-69
2023/04/24 10:01:44;;;;;;;7.70;5.63;;;7.70;99.90;;;;;;5074155;28;20917;-69
2023/04/24 10:04:19;;;;;;;6.53;4.50;;;7.70;18.50;;;;;;5074259;28;20511;-68
2023/04/24 10:06:48;;;;;;;8.93;4.53;;;7.60;99.90;;;;;;5075193;28;20461;-67
2023/04/24 10:09:16;;;;;;;4.50;4.10;;;7.60;1.00;;;;;;5075625;28;20878;-67
2023/04/24 10:11:45;;;;;;;5.47;4.97;;;7.60;1.00;;;;;;5075578;28;20467;-66
2023/04/24 10:14:16;;;;;;;6.50;5.07;;;7.70;99.90;;;;;;5076297;28;20444;-67
2023/04/24 10:16:46;;;;;;;7.10;4.70;;;7.60;99.90;;;;;;5076840;28;20505;-67
2023/04/24 10:19:14;;;;;;;4.97;3.70;;;7.70;1.00;;;;;;5076306;28;20476;-67
2023/04/24 10:21:46;;;;;;;5.23;4.33;;;7.60;1.00;;;;;;5076059;28;20496;-68
2023/04/24 10:24:13;;;;;;;7.03;5.10;;;7.70;1.00;;;;;;5076134;28;20457;-68
2023/04/24 10:26:42;;;;;;;5.87;4.80;;;7.70;99.90;;;;;;5076727;28;20450;-68
2023/04/24 10:29:11;;;;;;;6.47;5.00;;;7.80;99.90;;;;;;5077143;28;20461;-68
2023/04/24 10:31:41;;;;;;;6.20;4.97;;;7.80;1.00;;;;;;5076776;28;20505;-67
2023/04/24 10:34:09;;;;;;;5.50;4.80;;;7.80;99.90;;;;;;5076837;28;20465;-68
2023/04/24 10:36:40;;;;;;;6.70;5.17;;;7.70;99.90;;;;;;5076631;28;20470;-68
2023/04/24 10:39:12;;;;;;;6.83;4.60;;;7.90;99.90;;;;;;5075597;28;20464;-68
2023/04/24 10:41:39;;;;;;;5.70;4.53;;;8.10;1.00;;;;;;5074862;28;20496;-68
2023/04/24 10:44:08;;;;;;;13.10;7.17;;;8.20;1.00;;;;;;5071271;28;20543;-68
2023/04/24 10:46:35;;;;;;;12.47;5.90;;;8.10;1.00;;;;;;5072769;28;20556;-67
2023/04/24 10:49:08;;;;;;;8.43;5.47;;;8.20;10.50;;;;;;5073587;28;20496;-67
2023/04/24 10:51:47;;;;;;;7.60;5.40;;;8.50;1.00;;;;;;5075948;28;20493;-66
2023/04/24 10:54:25;;;;;;;10.70;6.03;;;8.70;99.90;;;;;;5060668;28;20465;-67
2023/04/24 10:56:53;;;;;;;9.17;6.10;;;8.90;1.00;;;;;;5060059;28;20564;-68
2023/04/24 10:59:28;;;;;;;8.37;5.03;;;9.00;1.00;;;;;;5060946;28;20911;-68
2023/04/24 11:01:56;;;;;;;7.70;5.33;;;8.90;1.00;;;;;;5060515;28;20493;-68
2023/04/24 11:04:35;;;;;;;8.10;4.80;;;9.00;1.00;;;;;;5060747;28;20450;-68
2023/04/24 11:07:03;;;;;;;8.70;4.67;;;8.90;1.00;;;;;;5060738;28;20564;-68
2023/04/24 11:09:32;;;;;;;8.90;4.67;;;8.70;1.00;;;;;;5060577;28;20548;-69
2023/04/24 11:12:08;;;;;;;11.07;5.20;;;8.80;1.00;;;;;;5060250;28;20462;-69
2023/04/24 11:15:04;;;;;;;8.87;5.00;;;8.90;1.00;;;;;;5060662;28;20516;-68
2023/04/24 11:17:33;;;;;;;8.77;5.23;;;9.00;2.60;;;;;;5060548;28;20525;-69
2023/04/24 11:20:06;;;;;;;8.77;5.90;;;9.00;1.00;;;;;;5061085;28;20465;-69
2023/04/24 11:22:36;;;;;;;7.70;4.87;;;8.90;1.00;;;;;;5060793;28;20463;-68
2023/04/24 11:25:04;;;;;;;8.40;5.30;;;8.90;1.00;;;;;;5061473;28;20537;-74
2023/04/24 11:27:33;;;;;;;7.27;5.40;;;8.60;1.00;;;;;;5061057;28;20486;-70
2023/04/24 11:30:02;;;;;;;8.50;5.10;;;8.60;1.00;;;;;;5067303;28;20468;-71
2023/04/24 11:32:34;;;;;;;9.93;5.37;;;8.70;1.00;;;;;;5080221;28;20559;-69
2023/04/24 11:35:05;;;;;;;10.87;5.37;;;8.70;1.00;;;;;;5080273;28;20560;-68
2023/04/24 11:37:36;;;;;;;13.40;7.20;;;8.60;1.00;;;;;;5079798;28;20493;-67
2023/04/24 11:40:05;;;;;;;14.40;7.57;;;8.60;1.00;;;;;;5080120;28;20881;-66
2023/04/24 11:42:36;;;;;;;13.10;10.43;;;8.60;1.00;;;;;;5080047;28;20504;-65
2023/04/24 11:45:08;;;;;;;12.77;7.00;;;8.70;1.00;;;;;;5080103;28;20465;-65
2023/04/24 11:47:35;;;;;;;15.10;7.10;;;8.60;1.00;;;;;;5080329;28;20461;-65
2023/04/24 11:50:05;;;;;;;12.20;6.47;;;8.60;1.00;;;;;;5079684;28;20461;-64
2023/04/24 11:52:34;;;;;;;9.77;6.50;;;8.60;1.00;;;;;;5080101;28;20555;-64
2023/04/24 11:55:01;;;;;;;12.47;6.73;;;8.60;1.00;;;;;;5079934;28;20511;-64
2023/04/24 11:57:33;;;;;;;11.03;6.90;;;8.60;1.00;;;;;;5079306;28;20552;-64
2023/04/24 12:00:00;;;;;;;11.20;7.20;;;8.80;1.00;;;;;;5078235;28;20898;-64
2023/04/24 12:02:28;;;;;;;10.57;6.57;;;8.90;1.00;;;;;;5079477;28;20493;-64
2023/04/24 12:04:56;;;;;;;7.50;5.60;;;9.00;1.00;;;;;;5078997;28;20465;-64
2023/04/24 12:07:25;;;;;;;11.90;6.97;;;9.10;1.00;;;;;;5079074;28;20472;-64
2023/04/24 12:09:57;;;;;;;9.50;6.27;;;9.30;1.00;;;;;;5079172;28;20469;-65
2023/04/24 12:12:27;;;;;;;9.30;4.90;;;9.40;1.00;;;;;;5079368;28;20823;-65
2023/04/24 12:14:56;;;;;;;8.40;4.97;;;9.70;1.00;;;;;;5078100;28;20527;-65
2023/04/24 12:17:27;;;;;;;13.13;5.50;;;9.70;1.00;;;;;;5078174;28;20464;-66
2023/04/24 12:19:59;;;;;;;13.17;6.83;;;9.90;1.00;;;;;;5079036;28;20465;-67
2023/04/24 12:22:28;;;;;;;10.03;6.50;;;10.00;1.00;;;;;;5079416;28;20980;-67
2023/04/24 12:25:03;;;;;;;10.63;6.23;;;10.00;1.00;;;;;;5078574;28;20544;-66
2023/04/24 12:27:33;;;;;;;9.33;5.20;;;10.10;1.00;;;;;;5078231;28;20527;-67
2023/04/24 12:30:01;;;;;;;8.83;5.33;;;10.00;1.00;;;;;;5078213;28;20464;-67
2023/04/24 12:32:28;;;;;;;7.17;4.30;;;9.70;1.00;;;;;;5075990;28;20571;-67
2023/04/24 12:34:57;;;;;;;9.47;4.80;;;9.30;1.00;;;;;;5077487;28;20552;-67
2023/04/24 12:37:25;;;;;;;8.50;4.30;;;9.20;1.00;;;;;;5077579;28;20766;-67
2023/04/24 12:40:06;;;;;;;9.30;3.80;;;9.30;1.00;;;;;;5077920;28;20773;-67
2023/04/24 12:42:35;;;;;;;7.80;4.63;;;9.20;1.00;;;;;;5059004;28;20816;-68
2023/04/24 12:45:05;;;;;;;8.03;4.37;;;9.30;1.00;;;;;;5056928;28;20516;-68
2023/04/24 12:47:32;;;;;;;10.80;4.63;;;9.30;1.00;;;;;;5056873;28;20477;-68
2023/04/24 12:50:00;;;;;;;8.33;4.43;;;9.40;1.00;;;;;;5075713;28;20453;-68
2023/04/24 12:52:29;;;;;;;7.50;4.13;;;9.40;1.00;;;;;;5078620;28;20559;-69
2023/04/24 12:54:57;;;;;;;7.30;4.50;;;9.30;1.00;;;;;;5078380;28;20465;-68
2023/04/24 12:57:27;;;;;;;8.23;4.27;;;9.20;1.00;;;;;;5077811;28;20497;-69
2023/04/24 12:59:56;;;;;;;9.43;4.67;;;9.10;99.90;;;;;;5078193;28;20920;-65
2023/04/24 13:02:23;;;;;;;7.60;4.03;;;9.00;99.90;;;;;;5078268;28;20497;-68